Companion Ship — WDF3026 — position and weather

sailwx.info

Track history (hours):
 
Tides and Currents Weather Stations Pressure Air Temp Water Temp Dewpoint Dewpoint Depression Visibility Wind Speed Wind Dir Waves Ship Positions

Companion Ship

Owner: brunkow, robert w, friday harbor, WA. More information available from US FCC via Universal Licensing System and Coast Guard Vessel Documentation Center.

Last reported at 2015-Jul-01 20:33 UTC. Time now 2015-Jul-02 08:05 UTC.
Position N 48°56' W 123°35'.

Length 20 m; draft 2 m.

Type: Pleasure craft. MMSI: 367434940.

Date/timePositionNaut miles runAvg speedWind from/ knotsBaromVisibWave heightAir tempDewpointWater temp
2015-Jul-01 20:33N 48°56' W 123°35'5 5.4
2015-Jul-01 19:32N 48°56' W 123°43'0 0.0
2015-Jul-01 17:32N 48°56' W 123°43'0 0.0
2015-Jul-01 16:33N 48°56' W 123°43'0 0.0
2015-Jul-01 14:32N 48°56' W 123°43'0 0.0
2015-Jul-01 13:30N 48°56' W 123°43'0 0.0
2015-Jul-01 12:33N 48°56' W 123°43'0 0.0
2015-Jul-01 11:21N 48°56' W 123°43'0 0.0
2015-Jul-01 10:21N 48°56' W 123°43'0 0.0
2015-Jul-01 09:28N 48°56' W 123°43'0 0.0
2015-Jul-01 08:33N 48°56' W 123°43'0 0.0
2015-Jul-01 07:31N 48°56' W 123°43'0 0.0
2015-Jul-01 06:33N 48°56' W 123°43'0 0.0
2015-Jul-01 04:34N 48°56' W 123°43'0 0.0
2015-Jul-01 03:32N 48°56' W 123°43'0 0.0
2015-Jul-01 02:33N 48°56' W 123°43'0 0.0
2015-Jul-01 01:23N 48°56' W 123°43'0 0.0
2015-Jul-01 00:13N 48°56' W 123°43'0 0.0
2015-Jun-30 23:33N 48°56' W 123°43'0 0.0
2015-Jun-30 20:06N 48°56' W 123°43'4 5.9
2015-Jun-30 19:25N 48°56' W 123°37'9 8.5
2015-Jun-30 18:24N 48°51' W 123°25'3 2.3
2015-Jun-30 17:07N 48°51' W 123°30'0 0.0
2015-Jun-30 16:20N 48°51' W 123°30'0 0.0
2015-Jun-30 15:20N 48°51' W 123°30'0 0.0
2015-Jun-30 14:32N 48°51' W 123°30'0 0.0
2015-Jun-30 13:33N 48°51' W 123°30'0 0.0
2015-Jun-30 12:27N 48°51' W 123°30'0 0.0
2015-Jun-30 11:33N 48°51' W 123°30'0 0.0
2015-Jun-30 10:30N 48°51' W 123°30'0 0.0
2015-Jun-30 09:33N 48°51' W 123°30'0 0.0
2015-Jun-30 08:31N 48°51' W 123°30'0 0.0
2015-Jun-30 07:33N 48°51' W 123°30'0 0.0
2015-Jun-30 06:33N 48°51' W 123°30'0 0.0
2015-Jun-30 05:32N 48°51' W 123°30'0 0.0
2015-Jun-30 04:31N 48°51' W 123°30'0 0.0
2015-Jun-30 03:14N 48°51' W 123°30'8 0.8
2015-Jun-29 16:05N 48°59' W 123°36'  
2015-Jun-26 22:33N 50°48' W 127°25'9 9.0
2015-Jun-26 21:33N 50°56' W 127°32'9 9.4
2015-Jun-26 20:33N 51°04' W 127°41'  
Track history (hours):
 
Tides and Currents Weather Stations Pressure Air Temp Water Temp Dewpoint Dewpoint Depression Visibility Wind Speed Wind Dir Waves Ship Positions

Companion Ship

Owner: brunkow, robert w, friday harbor, WA. More information available from US FCC via Universal Licensing System and Coast Guard Vessel Documentation Center.

Last reported at 2015-Jul-01 20:33 UTC. Time now 2015-Jul-02 08:05 UTC.
Position N 48°56' W 123°35'.

Length 20 m; draft 2 m.

Type: Pleasure craft. MMSI: 367434940.

Date/timePositionNaut miles runAvg speedWind from/ knotsBaromVisibWave heightAir tempDewpointWater temp
2015-Jul-01 20:33N 48°56' W 123°35'5 5.4
2015-Jul-01 19:32N 48°56' W 123°43'0 0.0
2015-Jul-01 17:32N 48°56' W 123°43'0 0.0
2015-Jul-01 16:33N 48°56' W 123°43'0 0.0
2015-Jul-01 14:32N 48°56' W 123°43'0 0.0
2015-Jul-01 13:30N 48°56' W 123°43'0 0.0
2015-Jul-01 12:33N 48°56' W 123°43'0 0.0
2015-Jul-01 11:21N 48°56' W 123°43'0 0.0
2015-Jul-01 10:21N 48°56' W 123°43'0 0.0
2015-Jul-01 09:28N 48°56' W 123°43'0 0.0
2015-Jul-01 08:33N 48°56' W 123°43'0 0.0
2015-Jul-01 07:31N 48°56' W 123°43'0 0.0
2015-Jul-01 06:33N 48°56' W 123°43'0 0.0
2015-Jul-01 04:34N 48°56' W 123°43'0 0.0
2015-Jul-01 03:32N 48°56' W 123°43'0 0.0
2015-Jul-01 02:33N 48°56' W 123°43'0 0.0
2015-Jul-01 01:23N 48°56' W 123°43'0 0.0
2015-Jul-01 00:13N 48°56' W 123°43'0 0.0
2015-Jun-30 23:33N 48°56' W 123°43'0 0.0
2015-Jun-30 20:06N 48°56' W 123°43'4 5.9
2015-Jun-30 19:25N 48°56' W 123°37'9 8.5
2015-Jun-30 18:24N 48°51' W 123°25'3 2.3
2015-Jun-30 17:07N 48°51' W 123°30'0 0.0
2015-Jun-30 16:20N 48°51' W 123°30'0 0.0
2015-Jun-30 15:20N 48°51' W 123°30'0 0.0
2015-Jun-30 14:32N 48°51' W 123°30'0 0.0
2015-Jun-30 13:33N 48°51' W 123°30'0 0.0
2015-Jun-30 12:27N 48°51' W 123°30'0 0.0
2015-Jun-30 11:33N 48°51' W 123°30'0 0.0
2015-Jun-30 10:30N 48°51' W 123°30'0 0.0
2015-Jun-30 09:33N 48°51' W 123°30'0 0.0
2015-Jun-30 08:31N 48°51' W 123°30'0 0.0
2015-Jun-30 07:33N 48°51' W 123°30'0 0.0
2015-Jun-30 06:33N 48°51' W 123°30'0 0.0
2015-Jun-30 05:32N 48°51' W 123°30'0 0.0
2015-Jun-30 04:31N 48°51' W 123°30'0 0.0
2015-Jun-30 03:14N 48°51' W 123°30'8 0.8
2015-Jun-29 16:05N 48°59' W 123°36'  
2015-Jun-26 22:33N 50°48' W 127°25'9 9.0
2015-Jun-26 21:33N 50°56' W 127°32'9 9.4
2015-Jun-26 20:33N 51°04' W 127°41'  

Dump ship's entire track history